Time;durP1;ratioP1;P1;durP2;ratioP2;P2;SDS_P1;SDS_P2;PMS_P1;PMS_P2;Temp;Humidity;BMP_temperature;BMP_pressure;BME280_temperature;BME280_humidity;BME280_pressure;Samples;Min_cycle;Max_cycle;Signal;HPM_P1;HPM_P2
2023/09/04 00:01:24;;;;;;;6.95;2.88;;;;;;;23.80;52.63;100917.72;4983065;28;20492;-69
2023/09/04 00:03:52;;;;;;;5.57;2.50;;;;;;;23.76;53.17;100924.84;4988816;28;20062;-71
2023/09/04 00:06:21;;;;;;;6.10;2.35;;;;;;;23.75;53.74;100923.09;4979115;28;20076;-71
2023/09/04 00:08:50;;;;;;;6.07;2.63;;;;;;;23.72;53.52;100924.94;5000980;28;20475;-70
2023/09/04 00:11:19;;;;;;;4.72;2.80;;;;;;;23.68;53.21;100923.25;5018242;28;20222;-70
2023/09/04 00:13:52;;;;;;;3.40;2.40;;;;;;;23.58;54.71;100912.88;5015393;28;20586;-71
2023/09/04 00:16:21;;;;;;;5.47;2.50;;;;;;;23.54;55.07;100913.84;5025052;28;20496;-71
2023/09/04 00:18:50;;;;;;;4.38;2.25;;;;;;;23.50;54.04;100903.38;5022483;28;20052;-72
2023/09/04 00:21:22;;;;;;;3.55;2.15;;;;;;;23.46;54.98;100899.97;5024004;28;20056;-71
2023/09/04 00:23:50;;;;;;;4.22;2.25;;;;;;;23.43;55.71;100897.38;5011399;28;20057;-71
2023/09/04 00:26:19;;;;;;;4.97;2.00;;;;;;;23.40;55.82;100895.66;5015474;28;20100;-71
2023/09/04 00:28:47;;;;;;;5.15;2.03;;;;;;;23.36;55.72;100885.19;5020464;28;20054;-69
2023/09/04 00:31:18;;;;;;;3.97;1.75;;;;;;;23.31;56.25;100892.34;5019234;28;20104;-70
2023/09/04 00:33:46;;;;;;;3.70;1.55;;;;;;;23.20;56.00;100895.22;5029012;28;20111;-69
2023/09/04 00:36:15;;;;;;;3.10;1.75;;;;;;;23.11;56.87;100891.00;5018929;28;20540;-71
2023/09/04 00:38:43;;;;;;;4.18;1.85;;;;;;;23.06;57.57;100891.97;5023239;28;20048;-72
2023/09/04 00:41:12;;;;;;;4.30;1.58;;;;;;;23.00;57.77;100893.00;5019970;28;20053;-71
2023/09/04 00:43:42;;;;;;;5.07;2.20;;;;;;;22.94;58.17;100893.94;5029718;28;20137;-70
2023/09/04 00:46:12;;;;;;;2.35;1.67;;;;;;;22.87;58.58;100886.19;5031365;28;20774;-70
2023/09/04 00:48:44;;;;;;;2.33;1.30;;;;;;;22.80;58.51;100896.84;5034058;28;20496;-71
2023/09/04 00:51:13;;;;;;;2.77;1.17;;;;;;;22.76;59.37;100889.88;5020874;28;20104;-73
2023/09/04 00:53:41;;;;;;;3.60;1.30;;;;;;;22.71;59.79;100886.47;5018641;28;20045;-70
2023/09/04 00:56:15;;;;;;;2.83;1.00;;;;;;;22.63;60.03;100888.38;5023662;28;20077;-71
2023/09/04 00:58:43;;;;;;;1.80;1.00;;;;;;;22.56;60.28;100892.00;5027584;28;20056;-70
2023/09/04 01:01:12;;;;;;;2.35;0.95;;;;;;;22.50;60.86;100897.41;5022883;28;20641;-72
2023/09/04 01:03:42;;;;;;;2.65;0.82;;;;;;;22.47;60.89;100894.81;5030653;28;20052;-71
2023/09/04 01:06:15;;;;;;;2.78;0.63;;;;;;;22.34;61.05;100905.56;5027848;28;20053;-70
2023/09/04 01:08:43;;;;;;;2.05;0.98;;;;;;;22.26;62.24;100902.19;5027701;28;20054;-70
2023/09/04 01:11:18;;;;;;;1.00;0.80;;;;;;;22.21;62.33;100903.13;5026440;28;20484;-71
2023/09/04 01:13:51;;;;;;;0.95;0.65;;;;;;;22.15;62.72;100907.63;5014823;28;20047;-72
2023/09/04 01:16:20;;;;;;;1.60;0.68;;;;;;;22.10;63.08;100898.03;5029213;28;20108;-71
2023/09/04 01:18:51;;;;;;;1.35;0.52;;;;;;;22.05;63.59;100902.50;5022228;28;20106;-72
2023/09/04 01:21:21;;;;;;;1.25;0.50;;;;;;;21.99;63.27;100903.47;5030300;28;20088;-70
2023/09/04 01:23:52;;;;;;;2.13;0.50;;;;;;;21.95;63.90;100905.28;5028727;28;20079;-69
2023/09/04 01:26:26;;;;;;;0.70;0.43;;;;;;;21.87;64.05;100901.88;5023487;28;20068;-71
2023/09/04 01:29:03;;;;;;;1.27;0.70;;;;;;;21.83;64.94;100901.94;5028485;28;20050;-72
2023/09/04 01:31:35;;;;;;;1.58;0.50;;;;;;;21.79;65.07;100910.81;5030199;28;20545;-72
2023/09/04 01:34:08;;;;;;;0.65;0.47;;;;;;;21.75;65.17;100904.69;5022599;28;20057;-71
2023/09/04 01:36:38;;;;;;;1.20;0.55;;;;;;;21.72;66.41;100899.50;5028955;28;20078;-68
2023/09/04 01:39:09;;;;;;;0.45;0.40;;;;;;;21.71;66.42;100905.63;5034544;28;20053;-68
2023/09/04 01:41:40;;;;;;;0.98;0.35;;;;;;;21.72;67.40;100916.16;5021832;28;20052;-71
2023/09/04 01:44:08;;;;;;;0.88;0.50;;;;;;;21.76;66.54;100901.16;5025025;28;20061;-72
2023/09/04 01:46:37;;;;;;;0.88;0.57;;;;;;;21.75;66.48;100892.41;5019382;28;20412;-71
2023/09/04 01:49:05;;;;;;;1.48;0.47;;;;;;;21.82;65.55;100901.09;5031879;28;20067;-71
2023/09/04 01:51:34;;;;;;;0.88;0.50;;;;;;;21.83;66.19;100894.03;5023803;28;20056;-71
2023/09/04 01:54:07;;;;;;;0.50;0.35;;;;;;;21.84;66.41;100891.41;5027339;28;20048;-70
2023/09/04 01:56:36;;;;;;;1.15;0.40;;;;;;;21.83;66.60;100892.31;5032337;28;20104;-72
2023/09/04 01:59:04;;;;;;;0.43;0.40;;;;;;;21.81;66.82;100888.81;5029062;28;20940;-72
2023/09/04 02:01:33;;;;;;;0.47;0.30;;;;;;;21.78;66.60;100887.97;5018734;28;20048;-72
2023/09/04 02:04:05;;;;;;;0.50;0.40;;;;;;;21.73;67.13;100886.28;5028694;28;20321;-71
2023/09/04 02:06:33;;;;;;;1.27;0.40;;;;;;;21.71;67.56;100885.41;5019350;28;20137;-71
2023/09/04 02:09:04;;;;;;;0.75;0.47;;;;;;;21.66;67.73;100894.28;5024970;28;20118;-72
2023/09/04 02:11:32;;;;;;;1.00;0.40;;;;;;;21.62;67.67;100895.22;5026677;28;20056;-72
2023/09/04 02:14:01;;;;;;;0.65;0.35;;;;;;;21.58;68.19;100897.06;5024470;28;20037;-71
2023/09/04 02:16:30;;;;;;;0.60;0.40;;;;;;;21.54;68.50;100895.34;5022576;28;20052;-72
2023/09/04 02:18:58;;;;;;;0.93;0.50;;;;;;;21.50;68.71;100897.13;5025382;28;20045;-72
2023/09/04 02:21:27;;;;;;;0.95;0.47;;;;;;;21.47;69.18;100891.91;5027529;28;20713;-70
2023/09/04 02:23:55;;;;;;;1.15;0.40;;;;;;;21.47;69.57;100897.19;5025706;28;20794;-70
2023/09/04 02:26:27;;;;;;;2.38;0.50;;;;;;;21.45;69.75;100904.22;5025246;28;20060;-71
2023/09/04 02:28:56;;;;;;;0.52;0.35;;;;;;;21.40;70.18;100900.78;5028416;28;20145;-71
2023/09/04 02:31:25;;;;;;;0.50;0.35;;;;;;;21.42;69.88;100906.03;5018001;28;20041;-71
2023/09/04 02:33:53;;;;;;;0.75;0.45;;;;;;;21.38;70.18;100902.53;5023905;28;20071;-70
2023/09/04 02:36:23;;;;;;;0.73;0.50;;;;;;;21.37;70.39;100905.19;5027437;28;20045;-69
2023/09/04 02:38:55;;;;;;;1.02;0.30;;;;;;;21.32;71.13;100906.09;5023865;28;20050;-70
2023/09/04 02:41:26;;;;;;;1.10;0.50;;;;;;;21.30;71.45;100905.28;5024926;28;20045;-71
2023/09/04 02:43:56;;;;;;;2.03;0.45;;;;;;;21.30;71.69;100904.38;5027286;28;20131;-70
2023/09/04 02:46:24;;;;;;;0.40;0.30;;;;;;;21.27;72.18;100905.28;5021675;28;20069;-71
2023/09/04 02:48:58;;;;;;;2.80;0.40;;;;;;;21.23;73.19;100907.97;5021074;28;20049;-70
2023/09/04 02:51:26;;;;;;;0.40;0.30;;;;;;;21.18;73.81;100910.66;5041032;28;20060;-70
2023/09/04 02:53:55;;;;;;;1.40;0.40;;;;;;;21.17;74.95;100906.31;5021137;28;20080;-70
2023/09/04 02:56:25;;;;;;;0.95;0.50;;;;;;;21.13;75.92;100905.47;5025257;28;20965;-71
2023/09/04 02:58:54;;;;;;;0.80;0.40;;;;;;;21.09;76.63;100901.13;5023220;28;20412;-71
2023/09/04 03:01:23;;;;;;;1.17;0.50;;;;;;;21.04;77.54;100902.94;5023918;28;20052;-71
2023/09/04 03:03:51;;;;;;;1.10;0.45;;;;;;;21.01;77.93;100900.34;5026640;28;20065;-71
2023/09/04 03:06:20;;;;;;;0.52;0.35;;;;;;;20.98;77.15;100905.66;5016149;28;20582;-70
2023/09/04 03:08:48;;;;;;;0.73;0.32;;;;;;;20.95;77.04;100902.16;5024178;28;20107;-69
2023/09/04 03:11:17;;;;;;;1.17;0.40;;;;;;;20.88;77.08;100901.38;5031055;28;20680;-69
2023/09/04 03:13:51;;;;;;;0.80;0.30;;;;;;;20.84;77.22;100900.50;5017501;28;20049;-69
2023/09/04 03:16:22;;;;;;;0.50;0.30;;;;;;;20.83;78.32;100908.44;5029436;28;20052;-68
2023/09/04 03:18:50;;;;;;;2.67;0.52;;;;;;;20.82;78.32;100904.06;5025830;28;20052;-68
2023/09/04 03:21:19;;;;;;;3.03;0.75;;;;;;;20.82;77.26;100902.31;5022793;28;20049;-69
2023/09/04 03:23:52;;;;;;;0.63;0.40;;;;;;;20.83;77.72;100904.03;5025081;28;20053;-69
2023/09/04 03:26:21;;;;;;;0.60;0.40;;;;;;;20.83;77.00;100906.69;5026170;28;20099;-70
2023/09/04 03:28:51;;;;;;;1.65;0.50;;;;;;;20.84;77.86;100908.41;5025753;28;20050;-69
2023/09/04 03:31:20;;;;;;;0.75;0.43;;;;;;;20.84;76.46;100905.78;5026169;28;20053;-68
2023/09/04 03:33:51;;;;;;;1.83;0.50;;;;;;;20.83;76.97;100919.81;5026005;28;20173;-70
2023/09/04 03:36:20;;;;;;;2.60;0.50;;;;;;;20.84;76.43;100920.69;5022404;28;20137;-70
2023/09/04 03:38:50;;;;;;;0.73;0.50;;;;;;;20.83;76.34;100924.22;5026753;28;20133;-69
2023/09/04 03:41:19;;;;;;;0.52;0.40;;;;;;;20.83;77.09;100924.22;5012200;28;20129;-71
2023/09/04 03:43:50;;;;;;;2.15;0.50;;;;;;;20.85;76.82;100928.56;5033885;28;20208;-70
2023/09/04 03:46:19;;;;;;;1.42;0.40;;;;;;;20.87;76.55;100926.81;5025451;28;20061;-70
2023/09/04 03:48:47;;;;;;;1.00;0.50;;;;;;;20.89;76.28;100934.66;5025948;28;20107;-70
2023/09/04 03:51:16;;;;;;;0.43;0.32;;;;;;;20.90;76.08;100936.41;5019827;28;20058;-70
2023/09/04 03:53:44;;;;;;;1.73;0.43;;;;;;;20.94;76.98;100938.13;5028791;28;20557;-70
2023/09/04 03:56:15;;;;;;;2.25;0.60;;;;;;;20.96;76.54;100941.63;5025223;28;20049;-70
2023/09/04 03:58:44;;;;;;;0.47;0.40;;;;;;;20.97;75.99;100943.34;5030195;28;20078;-70
2023/09/04 04:01:14;;;;;;;1.48;0.50;;;;;;;21.00;75.84;100948.56;5024903;28;20054;-70
2023/09/04 04:03:42;;;;;;;0.93;0.45;;;;;;;21.01;75.90;100955.59;5023658;28;20049;-70
2023/09/04 04:06:14;;;;;;;1.95;0.40;;;;;;;21.05;75.37;100962.56;5025806;28;20053;-71
2023/09/04 04:08:42;;;;;;;0.45;0.30;;;;;;;21.04;75.12;100970.47;5020513;28;20050;-71
2023/09/04 04:11:11;;;;;;;0.60;0.30;;;;;;;21.05;74.48;100967.84;5025694;28;20376;-71
2023/09/04 04:13:40;;;;;;;1.25;0.65;;;;;;;21.05;74.71;100962.56;5021703;28;20219;-72
2023/09/04 04:16:09;;;;;;;1.35;0.50;;;;;;;21.07;74.75;100965.16;5024327;28;20045;-71
2023/09/04 04:18:39;;;;;;;1.27;0.57;;;;;;;21.09;74.01;100968.66;5024936;28;20050;-71
2023/09/04 04:21:07;;;;;;;0.47;0.30;;;;;;;21.09;74.28;100972.16;5028410;28;20055;-71
2023/09/04 04:23:36;;;;;;;0.82;0.60;;;;;;;21.09;75.14;100964.25;5025731;28;20058;-71
2023/09/04 04:26:06;;;;;;;2.55;0.70;;;;;;;21.07;74.59;100966.06;5030782;28;20057;-73
2023/09/04 04:28:43;;;;;;;1.08;0.43;;;;;;;21.03;74.97;100969.59;5032298;28;20069;-71
2023/09/04 04:31:11;;;;;;;1.85;0.40;;;;;;;20.97;76.64;100971.41;5024378;28;20049;-71
2023/09/04 04:33:42;;;;;;;0.55;0.30;;;;;;;20.92;77.18;100969.72;5024987;28;20084;-70
2023/09/04 04:36:10;;;;;;;1.90;0.50;;;;;;;20.88;77.34;100975.88;5032148;28;20050;-70
2023/09/04 04:38:39;;;;;;;0.98;0.50;;;;;;;20.87;76.90;100974.16;5026901;28;20050;-70
2023/09/04 04:41:10;;;;;;;1.60;0.88;;;;;;;20.87;77.85;100975.91;5035220;28;20487;-71
2023/09/04 04:43:39;;;;;;;0.75;0.50;;;;;;;20.86;77.44;100977.66;5026476;28;20570;-71
2023/09/04 04:46:09;;;;;;;1.15;0.45;;;;;;;20.87;76.59;100974.16;5025604;28;20408;-72
2023/09/04 04:48:37;;;;;;;0.82;0.60;;;;;;;20.86;77.29;100974.16;5023124;28;20052;-71
2023/09/04 04:51:12;;;;;;;1.52;0.68;;;;;;;20.87;77.11;100973.28;5026645;28;20092;-71
2023/09/04 04:53:40;;;;;;;2.75;0.80;;;;;;;20.82;75.68;100975.94;5022918;28;20041;-72
2023/09/04 04:56:09;;;;;;;0.90;0.63;;;;;;;20.75;75.45;100974.25;5024518;28;20049;-72
2023/09/04 04:58:38;;;;;;;1.58;0.90;;;;;;;20.71;74.74;100983.06;5030400;28;20038;-71
2023/09/04 05:01:08;;;;;;;1.75;0.82;;;;;;;20.63;76.34;100977.84;5028130;28;20067;-70
2023/09/04 05:03:36;;;;;;;1.48;0.70;;;;;;;20.56;75.59;100983.16;5025770;28;20049;-70
2023/09/04 05:06:07;;;;;;;3.45;1.70;;;;;;;20.46;75.52;100990.25;5026786;28;20065;-71
2023/09/04 05:08:35;;;;;;;3.33;1.10;;;;;;;20.36;77.42;100992.03;5030067;28;20129;-70
2023/09/04 05:11:08;;;;;;;2.47;0.73;;;;;;;20.24;77.87;100995.63;5028691;28;20549;-70
2023/09/04 05:13:37;;;;;;;4.05;1.33;;;;;;;20.15;78.35;100998.31;5024945;28;20050;-69
2023/09/04 05:16:06;;;;;;;1.77;0.90;;;;;;;20.04;79.36;101000.13;5017976;28;20074;-70
2023/09/04 05:18:35;;;;;;;1.73;0.77;;;;;;;19.94;80.84;100998.44;5027222;28;20488;-70
2023/09/04 05:21:08;;;;;;;2.97;0.93;;;;;;;19.82;81.52;101000.25;5028458;28;20045;-70
2023/09/04 05:23:38;;;;;;;2.88;0.80;;;;;;;19.76;82.38;101002.91;5022377;28;20065;-70
2023/09/04 05:26:06;;;;;;;2.15;0.93;;;;;;;19.69;83.53;100992.44;5028004;28;20160;-69
2023/09/04 05:28:35;;;;;;;4.05;1.00;;;;;;;19.61;83.02;100995.06;5029496;28;20048;-71
2023/09/04 05:31:06;;;;;;;2.22;0.90;;;;;;;19.54;83.56;100990.69;5030966;28;20049;-71
2023/09/04 05:33:35;;;;;;;3.30;1.33;;;;;;;19.48;84.48;100989.00;5027457;28;20046;-73
2023/09/04 05:36:04;;;;;;;1.42;0.93;;;;;;;19.39;85.59;100989.88;5021467;28;20080;-71
2023/09/04 05:38:34;;;;;;;4.90;0.93;;;;;;;19.29;86.69;100979.41;5030070;28;20472;-72
2023/09/04 05:41:03;;;;;;;5.28;1.80;;;;;;;19.16;88.08;100970.72;5028673;28;20483;-71
2023/09/04 05:43:33;;;;;;;7.22;3.13;;;;;;;19.13;89.38;100978.59;5028125;28;20046;-71
2023/09/04 05:46:04;;;;;;;12.05;2.13;;;;;;;19.05;90.24;100971.59;5022419;28;20049;-71
2023/09/04 05:48:32;;;;;;;4.63;1.63;;;;;;;19.02;89.74;100981.25;5026347;28;20050;-70
2023/09/04 05:51:01;;;;;;;2.10;1.13;;;;;;;19.03;89.56;100969.84;5026030;28;20045;-70
2023/09/04 05:53:31;;;;;;;4.55;1.35;;;;;;;19.04;89.17;100969.88;5025079;28;20066;-71
2023/09/04 05:56:09;;;;;;;3.83;1.17;;;;;;;19.04;90.19;100966.38;5024965;28;20671;-71
2023/09/04 05:58:45;;;;;;;4.93;1.15;;;;;;;19.02;90.30;100963.75;5025405;28;20727;-71
2023/09/04 06:01:13;;;;;;;4.93;1.52;;;;;;;19.03;90.84;100962.88;5027595;28;20642;-71
2023/09/04 06:03:48;;;;;;;4.45;1.30;;;;;;;19.00;90.95;100962.88;5023570;28;20045;-71
2023/09/04 06:06:17;;;;;;;3.17;1.10;;;;;;;18.99;90.11;100963.75;5029829;28;20114;-72
2023/09/04 06:08:45;;;;;;;1.73;0.93;;;;;;;18.97;89.87;100965.50;5023649;28;20063;-74
2023/09/04 06:11:16;;;;;;;3.38;0.93;;;;;;;18.93;91.30;100969.00;5020701;28;20535;-73
2023/09/04 06:13:47;;;;;;;1.42;1.10;;;;;;;18.88;91.32;100973.41;5025561;28;20049;-73
2023/09/04 06:16:19;;;;;;;4.32;1.17;;;;;;;18.85;93.65;100973.38;5030870;28;20499;-73
2023/09/04 06:18:47;;;;;;;3.17;1.30;;;;;;;18.79;95.11;100976.03;5026277;28;20045;-72
2023/09/04 06:21:16;;;;;;;3.13;1.15;;;;;;;18.71;95.05;100980.34;5025109;28;20508;-72
2023/09/04 06:23:51;;;;;;;4.07;1.52;;;;;;;18.65;95.39;100989.09;5027601;28;20049;-73
2023/09/04 06:26:21;;;;;;;1.45;0.93;;;;;;;18.64;94.70;100982.09;5021209;28;20056;-73
2023/09/04 06:28:50;;;;;;;4.40;1.15;;;;;;;18.67;95.06;100989.09;5023541;28;20049;-74
2023/09/04 06:31:18;;;;;;;3.20;1.45;;;;;;;18.69;94.80;100985.63;5022329;28;20052;-74
2023/09/04 06:33:55;;;;;;;2.65;0.68;;;;;;;18.72;95.30;100989.97;5021674;28;20060;-73
2023/09/04 06:36:23;;;;;;;2.83;1.10;;;;;;;18.71;95.93;100982.97;5023108;28;20049;-73
2023/09/04 06:38:52;;;;;;;1.98;1.00;;;;;;;18.74;95.80;100978.63;5026980;28;20700;-73
2023/09/04 06:41:22;;;;;;;2.63;0.95;;;;;;;18.74;96.63;100983.00;5025422;28;20565;-72
2023/09/04 06:43:51;;;;;;;4.90;1.30;;;;;;;18.74;96.77;100990.84;5027347;28;20047;-74
2023/09/04 06:46:19;;;;;;;3.13;1.15;;;;;;;18.73;96.38;100989.09;5031109;28;20052;-73
2023/09/04 06:48:48;;;;;;;3.65;1.45;;;;;;;18.75;96.20;100997.84;5026587;28;20056;-73
2023/09/04 06:51:17;;;;;;;2.13;1.23;;;;;;;18.74;96.63;100996.09;5027932;28;20749;-74
2023/09/04 06:53:46;;;;;;;2.22;1.20;;;;;;;18.69;96.02;101001.34;5030216;28;20080;-74
2023/09/04 06:56:20;;;;;;;5.10;1.17;;;;;;;18.62;96.89;101003.09;5027102;28;20204;-73
2023/09/04 06:58:51;;;;;;;2.75;1.20;;;;;;;18.59;97.61;101007.44;5025836;28;20045;-74
2023/09/04 07:01:19;;;;;;;3.80;1.08;;;;;;;18.58;98.01;101008.31;5020979;28;20068;-74
2023/09/04 07:03:48;;;;;;;3.63;1.08;;;;;;;18.59;98.19;101012.69;5022959;28;20041;-73
2023/09/04 07:06:17;;;;;;;1.27;0.85;;;;;;;18.61;98.37;101008.31;5020044;28;20253;-73
2023/09/04 07:08:45;;;;;;;1.55;0.80;;;;;;;18.63;98.32;101012.69;5027211;28;20053;-73
2023/09/04 07:11:14;;;;;;;2.70;1.30;;;;;;;18.66;97.54;101010.94;5028395;28;20060;-73
2023/09/04 07:13:42;;;;;;;4.63;0.98;;;;;;;18.67;97.55;101004.81;5030964;28;20119;-73
2023/09/04 07:16:12;;;;;;;4.13;1.15;;;;;;;18.67;98.14;101007.44;5027899;28;20050;-73
2023/09/04 07:18:43;;;;;;;1.98;0.90;;;;;;;18.65;98.04;101006.59;5028086;28;20049;-73
2023/09/04 07:21:11;;;;;;;2.67;1.25;;;;;;;18.66;97.92;101008.31;5027141;28;20049;-73
2023/09/04 07:23:40;;;;;;;2.38;1.10;;;;;;;18.63;98.39;101007.44;5023542;28;20052;-73
2023/09/04 07:26:08;;;;;;;1.98;1.00;;;;;;;18.62;97.73;101005.72;5023904;28;20128;-73
2023/09/04 07:28:37;;;;;;;1.95;0.98;;;;;;;18.65;97.10;101003.97;5023740;28;20055;-73
2023/09/04 07:31:18;;;;;;;3.05;1.20;;;;;;;18.65;97.38;101003.97;5026389;28;20045;-73
2023/09/04 07:33:47;;;;;;;2.42;1.35;;;;;;;18.66;97.52;101005.69;5026879;28;20043;-73
2023/09/04 07:36:16;;;;;;;4.30;1.38;;;;;;;18.65;97.55;101009.22;5021607;28;20102;-73
2023/09/04 07:38:47;;;;;;;2.67;1.38;;;;;;;18.65;97.55;101024.94;5023456;28;20553;-73
2023/09/04 07:41:15;;;;;;;2.70;0.90;;;;;;;18.64;97.78;101013.53;5025253;28;20049;-73
2023/09/04 07:43:44;;;;;;;5.05;1.27;;;;;;;18.63;97.54;101028.41;5030315;28;20045;-73
2023/09/04 07:46:14;;;;;;;3.75;1.30;;;;;;;18.62;96.51;101021.44;5023591;28;20061;-73
2023/09/04 07:48:42;;;;;;;3.58;0.95;;;;;;;18.59;96.88;101020.53;5022963;28;20135;-73
2023/09/04 07:51:11;;;;;;;3.33;0.90;;;;;;;18.57;95.82;101014.41;5022999;28;20489;-74
2023/09/04 07:53:39;;;;;;;3.20;0.88;;;;;;;18.57;95.02;101015.28;5024006;28;20050;-74
2023/09/04 07:56:08;;;;;;;2.25;0.95;;;;;;;18.57;93.81;101012.66;5019940;28;20778;-75
2023/09/04 07:58:39;;;;;;;1.55;0.63;;;;;;;18.55;93.98;101017.03;5026077;28;20451;-74
2023/09/04 08:01:18;;;;;;;1.85;0.80;;;;;;;18.56;93.90;101015.31;5020667;28;20053;-73
2023/09/04 08:03:48;;;;;;;4.13;1.02;;;;;;;18.56;94.38;101015.31;5023260;28;20045;-74
2023/09/04 08:06:16;;;;;;;2.33;1.10;;;;;;;18.54;94.28;101022.28;5021272;28;20495;-74
2023/09/04 08:08:45;;;;;;;3.17;0.82;;;;;;;18.43;95.82;101012.66;5024160;28;20123;-74
2023/09/04 08:11:18;;;;;;;2.10;0.93;;;;;;;18.47;96.90;101020.53;5023249;28;20049;-73
2023/09/04 08:13:46;;;;;;;4.15;1.30;;;;;;;18.47;96.60;101015.31;5022962;28;20102;-74
2023/09/04 08:16:15;;;;;;;3.50;0.95;;;;;;;18.47;96.27;101015.31;5023931;28;20053;-74
2023/09/04 08:18:43;;;;;;;3.53;0.90;;;;;;;18.45;96.72;101017.91;5021031;28;20045;-75
2023/09/04 08:21:20;;;;;;;3.28;1.02;;;;;;;18.42;96.82;101015.28;5018090;28;20617;-74
2023/09/04 08:23:48;;;;;;;2.65;0.90;;;;;;;18.36;96.25;101012.66;5017847;28;20053;-74
2023/09/04 08:26:17;;;;;;;3.15;0.90;;;;;;;18.30;95.09;101007.41;5021478;28;20085;-74
2023/09/04 08:28:46;;;;;;;1.55;0.73;;;;;;;18.29;96.51;101010.91;5024170;28;20037;-74
2023/09/04 08:31:15;;;;;;;2.53;0.47;;;;;;;18.31;96.40;101032.75;5023134;28;20099;-74
2023/09/04 08:33:43;;;;;;;1.75;0.80;;;;;;;18.32;96.28;101027.47;5017262;28;20054;-74
2023/09/04 08:36:14;;;;;;;2.15;0.75;;;;;;;18.33;95.55;101028.38;5024487;28;20045;-74
2023/09/04 08:38:42;;;;;;;4.95;0.90;;;;;;;18.33;94.28;101033.63;5025904;28;20149;-74
2023/09/04 08:41:14;;;;;;;1.40;0.63;;;;;;;18.32;93.87;101024.00;5022112;28;20103;-73
2023/09/04 08:43:46;;;;;;;0.85;0.50;;;;;;;18.26;94.25;101018.75;5023314;28;20046;-74
2023/09/04 08:46:16;;;;;;;1.58;0.70;;;;;;;18.23;94.34;101031.84;5021276;28;20064;-73
2023/09/04 08:48:53;;;;;;;1.17;0.77;;;;;;;18.21;94.13;101030.09;5024104;28;20045;-74
2023/09/04 08:51:26;;;;;;;1.20;0.70;;;;;;;18.21;94.53;101030.09;5025380;28;20132;-75
2023/09/04 08:53:56;;;;;;;2.25;0.85;;;;;;;18.19;94.31;101037.06;5023683;28;20483;-74
2023/09/04 08:56:24;;;;;;;4.68;0.85;;;;;;;18.17;93.31;101040.56;5028114;28;20500;-73
2023/09/04 08:58:53;;;;;;;5.57;0.70;;;;;;;18.14;93.30;101041.44;5019613;28;20050;-74
2023/09/04 09:01:26;;;;;;;0.90;0.57;;;;;;;18.08;94.47;101049.25;5019265;28;20052;-73
2023/09/04 09:03:55;;;;;;;0.82;0.68;;;;;;;18.07;94.26;101052.72;5027983;28;20890;-72
2023/09/04 09:06:25;;;;;;;1.00;0.60;;;;;;;18.04;96.34;101046.63;5025191;28;20065;-72
2023/09/04 09:09:09;;;;;;;3.35;0.82;;;;;;;18.01;94.21;101047.50;4694472;28;9517929;-73
2023/09/04 09:11:39;;;;;;;2.50;1.33;;;;;;;18.02;93.51;101048.34;4987452;28;20536;-73
2023/09/04 09:14:08;;;;;;;3.50;1.33;;;;;;;17.99;93.26;101050.09;4984171;28;20051;-73
2023/09/04 09:16:36;;;;;;;1.52;0.80;;;;;;;17.98;94.17;101047.47;4986804;28;20054;-73
2023/09/04 09:19:07;;;;;;;0.70;0.50;;;;;;;17.97;94.02;101045.72;4986977;28;20496;-73
2023/09/04 09:21:37;;;;;;;4.20;0.60;;;;;;;17.97;93.55;101048.34;4984335;28;20058;-72
2023/09/04 09:24:12;;;;;;;1.55;0.30;;;;;;;17.99;92.55;101038.75;4986562;28;20568;-72
2023/09/04 09:26:41;;;;;;;3.72;0.40;;;;;;;17.98;91.66;101034.38;4984145;28;20058;-72
2023/09/04 09:29:12;;;;;;;0.40;0.30;;;;;;;18.00;91.75;101041.38;4982876;28;20058;-73
2023/09/04 09:31:42;;;;;;;1.10;0.30;;;;;;;17.97;91.76;101036.13;4984172;28;20042;-73
2023/09/04 09:34:11;;;;;;;0.88;0.50;;;;;;;17.91;92.74;101035.22;4986604;28;20050;-73
2023/09/04 09:36:42;;;;;;;1.65;0.40;;;;;;;17.88;92.21;101036.09;4981766;28;20046;-73
2023/09/04 09:39:10;;;;;;;0.50;0.30;;;;;;;17.87;91.36;101036.09;4982426;28;20490;-74
2023/09/04 09:41:39;;;;;;;0.93;0.32;;;;;;;17.84;91.42;101029.09;4985465;28;20587;-73
2023/09/04 09:44:08;;;;;;;1.65;0.50;;;;;;;17.82;91.08;101030.84;4983173;28;20054;-73
2023/09/04 09:46:38;;;;;;;5.75;0.40;;;;;;;17.78;90.19;101036.91;4989572;28;20058;-74
2023/09/04 09:49:08;;;;;;;0.40;0.28;;;;;;;17.73;90.75;101042.13;4984469;28;20106;-73
2023/09/04 09:51:42;;;;;;;1.38;0.30;;;;;;;17.68;91.04;101042.94;4985098;28;20451;-73
2023/09/04 09:54:12;;;;;;;1.00;0.30;;;;;;;17.60;92.79;101042.91;4987003;28;20053;-73
2023/09/04 09:56:43;;;;;;;1.55;0.73;;;;;;;17.56;93.82;101041.13;4987514;28;20034;-73
2023/09/04 09:59:16;;;;;;;0.70;0.50;;;;;;;17.52;94.23;101042.88;4983848;28;20054;-74
2023/09/04 10:01:44;;;;;;;;;;;;;;;17.47;94.01;101046.31;4983176;28;20134;-73
2023/09/04 10:04:15;;;;;;;5.43;0.50;;;;;;;17.38;93.47;101048.03;4983643;28;19933;-73
2023/09/04 10:06:47;;;;;;;2.15;0.57;;;;;;;17.36;94.03;101052.38;4978975;28;20058;-73
2023/09/04 10:09:23;;;;;;;2.65;0.40;;;;;;;17.34;94.00;101051.50;4992994;28;20058;-72
2023/09/04 10:12:01;;;;;;;0.75;0.50;;;;;;;17.34;94.54;101047.97;4986419;28;20055;-73
2023/09/04 10:14:34;;;;;;;1.30;0.55;;;;;;;17.28;93.76;101040.13;4985034;28;20655;-73
2023/09/04 10:17:08;;;;;;;1.75;0.50;;;;;;;17.34;93.54;101048.88;4989435;28;20046;-72
2023/09/04 10:19:41;;;;;;;1.02;0.45;;;;;;;17.32;92.23;101061.06;5005482;28;20201;-73
2023/09/04 10:22:22;;;;;;;0.60;0.40;;;;;;;17.30;91.32;101060.19;5001176;28;20057;-72
2023/09/04 10:24:57;;;;;;;0.90;0.50;;;;;;;17.28;91.65;101061.91;5005869;28;20053;-72
2023/09/04 10:27:32;;;;;;;4.00;0.30;;;;;;;17.25;92.18;101063.59;5008006;28;20046;-72
2023/09/04 10:30:07;;;;;;;1.48;0.40;;;;;;;17.22;92.34;101064.47;5005291;28;20041;-73
2023/09/04 10:32:36;;;;;;;0.90;0.60;;;;;;;17.20;92.46;101062.72;5002657;28;20046;-73
2023/09/04 10:35:05;;;;;;;1.13;0.35;;;;;;;17.17;93.17;101068.78;5001510;28;20053;-73
2023/09/04 10:37:37;;;;;;;2.63;0.70;;;;;;;17.14;92.50;101071.41;5004726;28;20060;-73
2023/09/04 10:40:11;;;;;;;3.28;0.65;;;;;;;17.12;92.29;101075.72;5007461;28;20053;-73
2023/09/04 10:42:41;;;;;;;1.48;0.77;;;;;;;17.07;93.02;101073.09;5003530;28;20060;-73
2023/09/04 10:45:18;;;;;;;1.02;0.50;;;;;;;17.05;92.88;101076.56;4999710;28;20050;-73
2023/09/04 10:47:48;;;;;;;1.02;0.60;;;;;;;17.05;93.45;101072.19;5003389;28;20049;-72
2023/09/04 10:50:30;;;;;;;1.08;0.52;;;;;;;17.05;92.90;101076.56;5003773;28;20050;-73
2023/09/04 10:53:04;;;;;;;3.30;0.60;;;;;;;17.04;92.85;101080.00;5007626;28;20050;-73
2023/09/04 10:55:34;;;;;;;1.33;0.45;;;;;;;17.02;92.44;101079.13;4997573;28;20563;-74
2023/09/04 10:58:04;;;;;;;1.38;0.57;;;;;;;16.98;91.99;101082.59;4996811;28;20117;-74
2023/09/04 11:00:34;;;;;;;2.63;0.60;;;;;;;16.89;92.74;101084.25;5007101;28;20041;-73
2023/09/04 11:03:16;;;;;;;1.25;0.50;;;;;;;16.80;93.25;101085.91;4989263;28;20058;-74
2023/09/04 11:06:10;;;;;;;3.10;0.82;;;;;;;16.71;93.83;101081.44;4997255;28;20491;-73
2023/09/04 11:08:50;;;;;;;7.38;0.70;;;;;;;16.63;94.48;101073.53;4997826;28;20042;-74
2023/09/04 11:11:28;;;;;;;1.27;0.60;;;;;;;16.62;94.91;101074.38;4984983;28;20052;-74
2023/09/04 11:14:01;;;;;;;0.45;0.30;;;;;;;16.62;94.81;101076.13;4983170;28;20086;-73
2023/09/04 11:16:37;;;;;;;3.22;0.60;;;;;;;16.64;95.66;101082.25;4985272;28;20523;-74
2023/09/04 11:19:08;;;;;;;6.22;0.60;;;;;;;16.59;95.30;101092.66;4984871;28;20271;-74
2023/09/04 11:21:38;;;;;;;3.80;0.80;;;;;;;16.55;95.05;101090.88;4984196;28;20098;-74
2023/09/04 11:24:08;;;;;;;1.70;0.40;;;;;;;16.48;94.76;101096.88;4986363;28;20085;-74
2023/09/04 11:26:47;;;;;;;2.20;0.70;;;;;;;16.41;95.66;101097.69;4980295;28;20057;-74
2023/09/04 11:29:15;;;;;;;0.63;0.20;;;;;;;16.33;95.87;101094.97;4978942;28;20559;-74
2023/09/04 11:31:45;;;;;;;4.03;0.60;;;;;;;16.25;96.50;101094.88;4980923;28;20555;-74
2023/09/04 11:34:22;;;;;;;3.60;0.50;;;;;;;16.21;96.55;101102.66;4983887;28;20047;-73
2023/09/04 11:36:50;;;;;;;1.60;0.60;;;;;;;16.15;96.20;101097.38;4987275;28;20520;-73
2023/09/04 11:39:21;;;;;;;5.53;0.70;;;;;;;16.12;96.11;101086.03;4986808;28;20051;-74